Time;durP1;ratioP1;P1;durP2;ratioP2;P2;SDS_P1;SDS_P2;PMS_P1;PMS_P2;Temp;Humidity;BMP_temperature;BMP_pressure;BME280_temperature;BME280_humidity;BME280_pressure;Samples;Min_cycle;Max_cycle;Signal;HPM_P1;HPM_P2
2023/02/17 00:00:27;;;;;;;48.33;21.25;;;;;;;2.27;58.40;94817.69;5103838;28;20027;-87
2023/02/17 00:02:56;;;;;;;53.63;19.33;;;;;;;2.28;58.31;94808.75;5103538;28;20024;-87
2023/02/17 00:05:22;;;;;;;51.97;20.38;;;;;;;2.28;58.36;94821.91;5103709;28;20099;-87
2023/02/17 00:07:48;;;;;;;39.70;17.25;;;;;;;2.29;58.20;94815.63;5104053;28;20027;-90
2023/02/17 00:10:14;;;;;;;39.75;15.82;;;;;;;2.25;58.21;94819.75;5103891;28;20073;-88
2023/02/17 00:12:39;;;;;;;54.65;17.33;;;;;;;2.28;57.94;94819.28;5103239;28;20307;-86
2023/02/17 00:15:05;;;;;;;63.08;17.95;;;;;;;2.21;58.12;94822.84;5101976;28;20020;-87
2023/02/17 00:17:31;;;;;;;40.45;16.42;;;;;;;2.18;58.29;94815.44;5102112;28;20023;-86
2023/02/17 00:19:56;;;;;;;50.22;18.15;;;;;;;2.20;58.29;94812.59;5103281;28;20027;-89
2023/02/17 00:22:22;;;;;;;47.15;19.15;;;;;;;2.21;58.51;94817.59;5103401;28;20027;-89
2023/02/17 00:24:47;;;;;;;53.25;19.00;;;;;;;2.14;58.38;94806.44;5103554;28;20024;-86
2023/02/17 00:27:13;;;;;;;38.95;17.52;;;;;;;2.14;58.55;94803.00;5103213;28;20326;-86
2023/02/17 00:29:38;;;;;;;42.20;18.23;;;;;;;2.12;58.63;94807.72;5103018;28;20019;-87
2023/02/17 00:32:04;;;;;;;49.42;18.83;;;;;;;2.11;58.61;94809.53;5103278;28;20166;-87
2023/02/17 00:34:29;;;;;;;50.70;18.20;;;;;;;2.08;58.73;94796.88;5103215;28;20020;-86
2023/02/17 00:36:56;;;;;;;48.05;19.10;;;;;;;2.09;58.73;94802.91;5101828;28;20034;-86
2023/02/17 00:39:21;;;;;;;45.55;19.17;;;;;;;2.11;58.75;94799.00;5102554;28;20382;-86
2023/02/17 00:41:47;;;;;;;48.90;19.20;;;;;;;2.05;58.96;94789.44;5107278;28;20091;-84
2023/02/17 00:44:18;;;;;;;53.00;19.23;;;;;;;2.07;58.98;94776.84;5106834;28;20023;-88
2023/02/17 00:46:45;;;;;;;39.63;17.75;;;;;;;2.08;59.19;94775.81;5106959;28;20044;-86
2023/02/17 00:49:24;;;;;;;45.28;19.60;;;;;;;2.05;59.22;94773.66;5106818;28;20028;-88
2023/02/17 00:51:50;;;;;;;42.47;16.13;;;;;;;2.08;59.08;94769.78;5106970;28;20046;-86
2023/02/17 00:54:16;;;;;;;35.50;14.73;;;;;;;2.01;58.78;94767.28;5106687;28;20024;-85
2023/02/17 00:56:41;;;;;;;37.50;15.18;;;;;;;2.00;58.75;94776.22;5106406;28;20020;-88
2023/02/17 00:59:07;;;;;;;44.47;16.95;;;;;;;1.97;59.11;94771.41;5106865;28;20022;-87
2023/02/17 01:01:33;;;;;;;31.15;13.23;;;;;;;1.93;58.97;94770.28;5106714;28;20016;-87
2023/02/17 01:03:59;;;;;;;30.58;13.27;;;;;;;1.89;59.30;94774.41;5106665;28;20047;-87
2023/02/17 01:06:28;;;;;;;32.50;12.57;;;;;;;1.86;59.30;94780.94;5106346;28;20012;-85
2023/02/17 01:08:53;;;;;;;32.13;13.40;;;;;;;1.88;59.22;94780.72;5106304;28;20015;-87
2023/02/17 01:11:24;;;;;;;34.13;13.65;;;;;;;1.88;59.18;94778.09;5106498;28;20052;-87
2023/02/17 01:13:50;;;;;;;37.92;15.15;;;;;;;1.82;59.68;94776.41;5105452;28;20020;-86
2023/02/17 01:16:28;;;;;;;33.33;13.75;;;;;;;1.80;59.75;94780.06;5106523;28;20129;-87
2023/02/17 01:18:54;;;;;;;37.80;16.08;;;;;;;1.80;59.71;94779.28;5106202;28;20076;-86
2023/02/17 01:21:24;;;;;;;34.95;13.88;;;;;;;1.86;59.78;94785.41;5106450;28;20249;-86
2023/02/17 01:23:52;;;;;;;28.17;12.35;;;;;;;1.82;59.85;94763.25;5105328;28;20028;-87
2023/02/17 01:26:20;;;;;;;29.73;12.60;;;;;;;1.82;59.82;94771.16;5106441;28;20020;-87
2023/02/17 01:28:46;;;;;;;25.00;12.02;;;;;;;1.83;59.56;94765.63;5106389;28;20050;-88
2023/02/17 01:31:12;;;;;;;27.30;10.98;;;;;;;1.83;59.74;94764.84;5104853;28;20218;-86
2023/02/17 01:33:39;;;;;;;28.15;12.75;;;;;;;1.85;59.81;94762.78;5104967;28;20329;-86
2023/02/17 01:36:08;;;;;;;31.23;12.18;;;;;;;1.84;59.58;94743.59;5105970;28;20032;-87
2023/02/17 01:38:34;;;;;;;39.70;14.48;;;;;;;1.88;59.49;94759.69;5105895;28;20024;-86
2023/02/17 01:41:00;;;;;;;31.58;13.60;;;;;;;1.84;59.26;94746.22;5106101;28;20020;-86
2023/02/17 01:43:26;;;;;;;37.80;14.82;;;;;;;1.85;59.06;94747.00;5105920;28;20028;-87
2023/02/17 01:46:03;;;;;;;32.75;14.35;;;;;;;1.86;59.26;94741.53;5105598;28;20016;-87
2023/02/17 01:48:36;;;;;;;35.65;13.18;;;;;;;1.90;59.30;94755.78;5105788;28;20016;-87
2023/02/17 01:51:23;;;;;;;38.63;14.32;;;;;;;1.88;59.23;94757.84;5104699;28;20429;-86
2023/02/17 01:53:56;;;;;;;42.05;13.93;;;;;;;1.86;59.28;94754.66;5105492;28;20052;-87
2023/02/17 01:56:23;;;;;;;36.92;14.07;;;;;;;1.83;59.54;94738.56;5104397;28;20023;-86
2023/02/17 01:58:54;;;;;;;32.72;13.82;;;;;;;1.85;59.29;94768.03;5104542;28;20056;-86
2023/02/17 02:01:20;;;;;;;37.50;13.75;;;;;;;1.85;59.41;94752.25;5105580;28;20020;-86
2023/02/17 02:03:46;;;;;;;39.10;14.45;;;;;;;1.84;59.45;94753.31;5105742;28;20034;-87
2023/02/17 02:06:17;;;;;;;33.65;12.63;;;;;;;1.84;59.61;94755.94;5105358;28;20022;-86
2023/02/17 02:08:58;;;;;;;32.70;12.95;;;;;;;1.74;59.67;94746.81;5104312;28;20052;-87
2023/02/17 02:11:24;;;;;;;38.50;13.85;;;;;;;1.73;59.91;94750.50;5105310;28;20023;-88
2023/02/17 02:13:50;;;;;;;30.17;14.05;;;;;;;1.70;60.26;94748.34;5104127;28;20078;-87
2023/02/17 02:16:24;;;;;;;36.42;14.43;;;;;;;1.69;60.22;94733.63;5105307;28;20243;-88
2023/02/17 02:19:03;;;;;;;36.03;14.05;;;;;;;1.70;60.22;94744.91;5105176;28;20024;-89
2023/02/17 02:21:46;;;;;;;45.53;15.38;;;;;;;1.63;60.45;94755.56;5105577;28;20184;-88
2023/02/17 02:24:19;;;;;;;37.47;13.80;;;;;;;1.59;60.69;94749.97;5105504;28;20024;-89
2023/02/17 02:26:52;;;;;;;33.75;13.95;;;;;;;1.59;60.52;94754.44;5104681;28;20088;-88
2023/02/17 02:29:36;;;;;;;30.85;12.93;;;;;;;1.61;60.77;94752.38;5104700;28;20333;-87
2023/02/17 02:32:32;;;;;;;35.50;15.02;;;;;;;1.57;61.08;94756.50;5105410;28;20056;-88
2023/02/17 02:35:09;;;;;;;30.65;14.82;;;;;;;1.56;61.29;94762.78;5105492;28;20395;-88
2023/02/17 02:37:42;;;;;;;37.85;14.90;;;;;;;1.55;61.22;94755.94;5105666;28;20035;-87
2023/02/17 02:40:09;;;;;;;36.92;14.63;;;;;;;1.49;61.58;94751.63;5103717;28;20047;-86
2023/02/17 02:42:36;;;;;;;42.45;15.90;;;;;;;1.50;61.53;94755.84;5103600;28;20059;-86
2023/02/17 02:45:06;;;;;;;33.85;16.60;;;;;;;1.53;61.53;94750.91;5104692;28;20065;-86
2023/02/17 02:47:34;;;;;;;37.85;15.20;;;;;;;1.55;61.25;94748.06;5104501;28;20365;-86
2023/02/17 02:49:59;;;;;;;37.58;15.32;;;;;;;1.51;61.42;94746.94;5103363;28;20039;-86
2023/02/17 02:52:25;;;;;;;36.08;16.23;;;;;;;1.49;61.51;94747.16;5104331;28;20050;-87
2023/02/17 02:55:00;;;;;;;38.42;15.65;;;;;;;1.43;61.67;94747.31;5104782;28;20311;-87
2023/02/17 02:57:34;;;;;;;45.72;16.45;;;;;;;1.41;61.86;94752.78;5104532;28;20554;-87
2023/02/17 03:00:21;;;;;;;31.50;15.60;;;;;;;1.42;61.79;94743.06;5104552;28;20023;-85
2023/02/17 03:03:03;;;;;;;34.50;14.18;;;;;;;1.36;62.12;94756.13;5104144;28;20032;-85
2023/02/17 03:05:44;;;;;;;34.53;14.80;;;;;;;1.20;62.36;94752.41;5104240;28;20036;-87
2023/02/17 03:08:16;;;;;;;37.22;16.25;;;;;;;1.21;62.88;94742.69;5104453;28;20094;-86
2023/02/17 03:10:48;;;;;;;41.47;15.05;;;;;;;1.21;62.84;94745.31;5104339;28;20035;-86
2023/02/17 03:13:14;;;;;;;42.00;15.93;;;;;;;1.21;62.94;94755.81;5104345;28;20020;-87
2023/02/17 03:15:40;;;;;;;35.50;16.10;;;;;;;1.23;62.74;94755.59;5104269;28;20032;-87
2023/02/17 03:18:05;;;;;;;34.35;14.52;;;;;;;1.28;62.76;94753.84;5104786;28;20314;-87
2023/02/17 03:20:36;;;;;;;33.10;14.07;;;;;;;1.30;62.62;94750.97;5104269;28;20294;-87
2023/02/17 03:23:03;;;;;;;33.75;15.18;;;;;;;1.28;62.55;94755.69;5102964;28;20042;-87
2023/02/17 03:25:28;;;;;;;35.72;15.20;;;;;;;1.25;62.70;94738.56;5103946;28;20214;-86
2023/02/17 03:27:54;;;;;;;37.65;15.15;;;;;;;1.24;62.74;94744.81;5103718;28;20024;-87
2023/02/17 03:30:19;;;;;;;33.20;13.73;;;;;;;1.21;62.56;94737.44;5104007;28;20095;-86
2023/02/17 03:32:45;;;;;;;31.75;15.00;;;;;;;1.20;62.96;94741.06;5104225;28;20215;-86
2023/02/17 03:35:12;;;;;;;31.30;14.10;;;;;;;1.19;62.72;94735.03;5103804;28;20024;-87
2023/02/17 03:37:37;;;;;;;33.40;14.63;;;;;;;1.22;62.48;94739.00;5103883;28;20027;-87
2023/02/17 03:40:04;;;;;;;33.08;14.32;;;;;;;1.19;62.53;94744.75;5103974;28;20077;-87
2023/02/17 03:42:30;;;;;;;34.63;14.57;;;;;;;1.20;62.65;94755.03;5103768;28;20024;-88
2023/02/17 03:44:56;;;;;;;37.90;14.63;;;;;;;1.25;62.58;94750.91;5103926;28;20023;-87
2023/02/17 03:47:21;;;;;;;34.47;14.93;;;;;;;1.20;62.67;94741.06;5103656;28;20047;-87
2023/02/17 03:49:47;;;;;;;38.90;14.43;;;;;;;1.17;62.66;94741.56;5103827;28;20098;-86
2023/02/17 03:52:12;;;;;;;36.75;16.00;;;;;;;1.19;62.75;94737.66;5103776;28;20107;-87
2023/02/17 03:54:37;;;;;;;35.95;14.52;;;;;;;1.19;62.93;94750.00;5103553;28;20032;-87
2023/02/17 03:57:03;;;;;;;36.72;15.52;;;;;;;1.19;62.83;94744.75;5103549;28;20024;-87
2023/02/17 03:59:29;;;;;;;36.88;14.88;;;;;;;1.24;62.72;94752.72;5103006;28;20096;-84
2023/02/17 04:01:54;;;;;;;32.85;14.57;;;;;;;1.29;62.43;94736.28;5103268;28;20073;-84
2023/02/17 04:04:20;;;;;;;34.90;15.35;;;;;;;1.31;62.56;94749.97;5103133;28;20051;-83
2023/02/17 04:06:45;;;;;;;34.88;14.50;;;;;;;1.29;62.46;94754.66;5103538;28;20016;-84
2023/02/17 04:09:11;;;;;;;29.90;13.05;;;;;;;1.27;62.54;94752.25;5103233;28;20020;-84
2023/02/17 04:11:36;;;;;;;33.95;14.70;;;;;;;1.22;62.69;94749.50;5103200;28;20031;-84
2023/02/17 04:14:02;;;;;;;29.98;13.98;;;;;;;1.24;62.53;94757.16;5102412;28;20016;-84
2023/02/17 04:16:27;;;;;;;35.85;14.05;;;;;;;1.21;62.55;94745.31;5101779;28;20307;-84
2023/02/17 04:18:53;;;;;;;30.83;13.27;;;;;;;1.25;62.48;94738.56;5102990;28;20032;-84
2023/02/17 04:21:18;;;;;;;28.75;13.35;;;;;;;1.25;62.39;94746.44;5103145;28;20047;-83
2023/02/17 04:23:44;;;;;;;35.38;12.95;;;;;;;1.27;62.36;94752.25;5103185;28;20028;-84
2023/02/17 04:26:09;;;;;;;36.85;13.30;;;;;;;1.33;62.07;94735.56;5102977;28;20020;-85
2023/02/17 04:28:39;;;;;;;37.58;13.45;;;;;;;1.36;62.56;94753.50;5103246;28;20024;-87
2023/02/17 04:31:05;;;;;;;33.55;15.02;;;;;;;1.42;61.72;94754.38;5103711;28;20020;-87
2023/02/17 04:33:31;;;;;;;36.08;14.77;;;;;;;1.37;61.96;94730.66;5103495;28;20026;-87
2023/02/17 04:35:58;;;;;;;36.08;14.18;;;;;;;1.35;61.82;94738.75;5103398;28;20028;-87
2023/02/17 04:38:33;;;;;;;37.22;14.27;;;;;;;1.36;61.96;94753.50;5102269;28;20016;-87
2023/02/17 04:40:59;;;;;;;35.70;14.20;;;;;;;1.40;62.04;94752.00;5103298;28;20222;-86
2023/02/17 04:43:26;;;;;;;35.28;15.05;;;;;;;1.44;61.94;94759.41;5103082;28;20024;-87
2023/02/17 04:45:52;;;;;;;33.20;13.27;;;;;;;1.40;62.06;94752.00;5103107;28;20020;-87
2023/02/17 04:48:18;;;;;;;41.40;16.70;;;;;;;1.43;62.06;94747.31;5103364;28;20035;-86
2023/02/17 04:50:44;;;;;;;44.08;15.70;;;;;;;1.41;62.02;94758.06;5104080;28;20051;-90
2023/02/17 04:53:10;;;;;;;39.97;14.65;;;;;;;1.47;61.62;94758.94;5104197;28;20306;-90
2023/02/17 04:55:36;;;;;;;40.83;16.52;;;;;;;1.50;61.73;94758.47;5103732;28;20044;-90
2023/02/17 04:58:02;;;;;;;43.90;16.73;;;;;;;1.47;61.77;94758.94;5104184;28;20030;-90
2023/02/17 05:00:27;;;;;;;36.55;16.65;;;;;;;1.48;62.05;94771.03;5103597;28;20047;-89
2023/02/17 05:02:52;;;;;;;32.20;15.82;;;;;;;1.45;62.06;94755.75;5103787;28;20027;-90
2023/02/17 05:05:18;;;;;;;44.22;17.05;;;;;;;1.45;61.93;94768.91;5103782;28;20091;-89
2023/02/17 05:07:47;;;;;;;45.90;18.13;;;;;;;1.47;62.04;94761.56;5103656;28;20032;-90
2023/02/17 05:10:14;;;;;;;35.83;16.02;;;;;;;1.48;62.18;94774.47;5102180;28;20028;-87
2023/02/17 05:12:39;;;;;;;43.72;17.50;;;;;;;1.43;62.36;94761.25;5103032;28;20114;-89
2023/02/17 05:15:06;;;;;;;33.92;16.10;;;;;;;1.37;62.33;94756.91;5103041;28;20028;-90
2023/02/17 05:17:34;;;;;;;37.67;17.30;;;;;;;1.37;62.53;94773.47;5102151;28;20032;-88
2023/02/17 05:20:00;;;;;;;39.58;18.10;;;;;;;1.39;62.56;94765.38;5103246;28;20023;-89
2023/02/17 05:22:26;;;;;;;45.25;18.25;;;;;;;1.40;62.66;94788.78;5103152;28;20035;-89
2023/02/17 05:24:52;;;;;;;42.20;17.83;;;;;;;1.40;62.58;94787.97;5103203;28;20035;-88
2023/02/17 05:27:18;;;;;;;47.53;19.38;;;;;;;1.42;62.53;94785.91;5105352;28;20091;-89
2023/02/17 05:29:44;;;;;;;38.42;17.83;;;;;;;1.44;62.57;94793.56;5106906;28;20024;-89
2023/02/17 05:32:09;;;;;;;40.08;19.13;;;;;;;1.38;62.58;94805.78;5106166;28;20098;-89
2023/02/17 05:34:35;;;;;;;44.28;20.20;;;;;;;1.38;62.78;94790.03;5106667;28;20024;-88
2023/02/17 05:37:00;;;;;;;49.25;21.02;;;;;;;1.38;62.66;94803.16;5106150;28;20024;-88
2023/02/17 05:39:26;;;;;;;51.13;20.42;;;;;;;1.39;62.81;94805.56;5105915;28;20332;-87
2023/02/17 05:41:51;;;;;;;53.45;19.83;;;;;;;1.38;62.75;94790.03;5106027;28;20016;-87
2023/02/17 05:44:17;;;;;;;55.85;19.70;;;;;;;1.38;63.10;94800.53;5106333;28;20019;-87
2023/02/17 05:46:42;;;;;;;50.95;20.27;;;;;;;1.39;62.95;94805.56;5105441;28;20334;-89
2023/02/17 05:49:08;;;;;;;51.15;19.38;;;;;;;1.41;62.91;94810.59;5106335;28;20034;-87
2023/02/17 05:51:33;;;;;;;50.83;20.48;;;;;;;1.45;63.00;94818.81;5106200;28;20062;-87
2023/02/17 05:53:59;;;;;;;54.30;22.67;;;;;;;1.53;62.99;94806.09;5105879;28;20095;-90
2023/02/17 05:56:24;;;;;;;48.47;20.38;;;;;;;1.62;62.63;94808.34;5106225;28;20027;-89
2023/02/17 05:58:50;;;;;;;44.90;17.38;;;;;;;1.64;62.76;94811.56;5106033;28;20237;-88
2023/02/17 06:01:15;;;;;;;44.78;17.48;;;;;;;1.71;62.38;94818.28;5106156;28;20023;-87
2023/02/17 06:03:41;;;;;;;50.45;20.48;;;;;;;1.80;62.45;94803.72;5104985;28;20016;-89
2023/02/17 06:06:07;;;;;;;41.80;16.38;;;;;;;1.83;61.86;94814.78;5104785;28;20047;-87
2023/02/17 06:08:33;;;;;;;42.90;17.10;;;;;;;1.88;61.97;94814.91;5105894;28;20028;-89
2023/02/17 06:10:59;;;;;;;42.40;17.30;;;;;;;1.95;61.57;94824.22;5105753;28;20024;-87
2023/02/17 06:13:25;;;;;;;38.90;16.77;;;;;;;2.03;61.31;94823.06;5105475;28;20019;-87
2023/02/17 06:15:50;;;;;;;40.40;19.40;;;;;;;2.12;61.16;94816.41;5105387;28;20032;-88
2023/02/17 06:18:16;;;;;;;49.67;19.67;;;;;;;2.24;60.76;94826.03;5105201;28;20024;-88
2023/02/17 06:20:41;;;;;;;49.22;19.48;;;;;;;2.30;61.20;94818.03;5105202;28;20043;-87
2023/02/17 06:23:07;;;;;;;48.65;20.77;;;;;;;2.31;61.17;94811.72;5105210;28;20031;-86
2023/02/17 06:25:32;;;;;;;61.10;21.05;;;;;;;2.38;60.81;94814.19;5105316;28;20138;-88
2023/02/17 06:27:57;;;;;;;46.50;20.75;;;;;;;2.47;60.17;94810.13;5105842;28;20024;-89
2023/02/17 06:30:23;;;;;;;52.88;18.73;;;;;;;2.58;59.80;94814.50;5105924;28;20020;-89
2023/02/17 06:32:49;;;;;;;49.63;19.60;;;;;;;2.63;59.46;94818.28;5105513;28;20087;-88
2023/02/17 06:35:15;;;;;;;53.42;19.83;;;;;;;2.71;59.38;94821.31;5105617;28;20027;-88
2023/02/17 06:37:40;;;;;;;50.13;20.58;;;;;;;2.80;59.20;94819.84;5104373;28;20020;-87
2023/02/17 06:40:06;;;;;;;49.75;20.30;;;;;;;2.89;59.16;94812.38;5105576;28;20020;-89
2023/02/17 06:42:31;;;;;;;52.55;21.40;;;;;;;3.00;59.22;94827.25;5105824;28;20043;-91
2023/02/17 06:44:57;;;;;;;55.47;20.38;;;;;;;3.09;59.61;94818.94;5105842;28;20069;-91
2023/02/17 06:47:22;;;;;;;57.75;21.55;;;;;;;3.18;58.78;94822.78;5106058;28;20067;-90
2023/02/17 06:49:48;;;;;;;51.63;20.90;;;;;;;3.26;58.70;94834.72;5106306;28;20024;-91
2023/02/17 06:52:13;;;;;;;50.15;21.58;;;;;;;3.26;58.59;94835.53;5104355;28;20028;-91
2023/02/17 06:54:39;;;;;;;58.03;21.52;;;;;;;3.31;58.59;94826.91;5105763;28;20051;-91
2023/02/17 06:57:04;;;;;;;58.88;21.38;;;;;;;3.37;58.41;94837.25;5105724;28;20093;-89
2023/02/17 06:59:32;;;;;;;58.75;20.60;;;;;;;3.41;58.33;94841.00;5105572;28;20043;-89
2023/02/17 07:01:57;;;;;;;58.80;21.95;;;;;;;3.49;58.00;94839.78;5104831;28;20035;-89
2023/02/17 07:04:22;;;;;;;62.13;20.50;;;;;;;3.57;58.16;94841.19;5104470;28;20371;-87
2023/02/17 07:06:48;;;;;;;53.28;21.42;;;;;;;3.66;57.71;94837.09;5104870;28;20051;-87
2023/02/17 07:09:13;;;;;;;55.58;21.05;;;;;;;3.75;57.70;94848.00;5104618;28;20024;-88
2023/02/17 07:11:40;;;;;;;59.88;21.75;;;;;;;3.82;57.41;94835.44;5104746;28;20034;-89
2023/02/17 07:14:06;;;;;;;56.83;18.52;;;;;;;3.91;57.32;94847.16;5104649;28;20070;-88
2023/02/17 07:16:32;;;;;;;57.90;19.83;;;;;;;4.00;57.22;94845.66;5104850;28;20232;-87
2023/02/17 07:18:57;;;;;;;47.72;16.98;;;;;;;4.07;56.62;94842.84;5104541;28;20024;-87
2023/02/17 07:21:23;;;;;;;51.72;15.82;;;;;;;4.12;56.51;94853.44;5104075;28;20099;-86
2023/02/17 07:23:48;;;;;;;40.47;15.50;;;;;;;4.19;56.29;94856.69;5104042;28;20020;-85
2023/02/17 07:26:14;;;;;;;46.60;15.85;;;;;;;4.27;55.89;94854.63;5102863;28;20103;-85
2023/02/17 07:28:39;;;;;;;37.22;16.40;;;;;;;4.37;55.46;94865.31;5103764;28;20023;-85
2023/02/17 07:31:11;;;;;;;45.67;17.13;;;;;;;4.46;55.08;94863.00;5103689;28;20060;-85
2023/02/17 07:33:37;;;;;;;40.45;17.63;;;;;;;4.54;54.60;94866.00;5103796;28;20012;-88
2023/02/17 07:36:11;;;;;;;56.10;17.33;;;;;;;4.61;54.66;94861.31;5103398;28;20032;-90
2023/02/17 07:38:37;;;;;;;49.58;15.60;;;;;;;4.71;54.48;94865.88;5103249;28;20024;-90
2023/02/17 07:41:15;;;;;;;41.15;15.07;;;;;;;4.77;54.25;94851.66;5103242;28;20219;-89
2023/02/17 07:43:40;;;;;;;58.15;15.98;;;;;;;4.87;54.20;94858.09;5104103;28;20218;-88
2023/02/17 07:46:08;;;;;;;46.97;16.13;;;;;;;4.94;53.47;94867.38;5102971;28;20048;-89
2023/02/17 07:48:33;;;;;;;53.17;15.85;;;;;;;5.01;53.62;94860.06;5103817;28;20058;-86
2023/02/17 07:51:10;;;;;;;73.45;15.85;;;;;;;5.08;53.36;94862.47;5102825;28;20008;-85
2023/02/17 07:53:36;;;;;;;48.30;16.20;;;;;;;5.21;52.84;94864.69;5103474;28;20028;-86
2023/02/17 07:56:03;;;;;;;52.80;17.17;;;;;;;5.31;52.42;94853.38;5103585;28;20024;-92
2023/02/17 07:58:33;;;;;;;54.25;16.23;;;;;;;5.37;52.63;94862.94;5101830;28;20050;-82
2023/02/17 08:01:10;;;;;;;56.08;17.58;;;;;;;5.46;52.56;94852.69;5102987;28;20305;-82
2023/02/17 08:03:35;;;;;;;43.72;15.98;;;;;;;5.56;51.33;94851.94;5101717;28;20016;-82
2023/02/17 08:06:01;;;;;;;49.08;16.65;;;;;;;5.64;50.41;94854.09;5102917;28;20016;-83
2023/02/17 08:14:20;;;;;;;38.80;15.07;;;;;;;5.90;49.82;94864.78;5103222;28;20239;-85
2023/02/17 08:16:46;;;;;;;45.55;16.98;;;;;;;5.95;49.91;94857.69;5102768;28;20028;-83
2023/02/17 08:19:11;;;;;;;47.58;17.63;;;;;;;6.06;50.03;94863.81;5103008;28;20103;-84
2023/02/17 08:21:36;;;;;;;42.33;17.00;;;;;;;6.16;49.82;94861.19;5102705;28;20087;-82
2023/02/17 08:24:02;;;;;;;39.50;16.15;;;;;;;6.29;49.97;94851.97;5103286;28;20031;-88
2023/02/17 08:26:28;;;;;;;38.30;15.63;;;;;;;6.40;49.67;94850.94;5101767;28;20017;-85
2023/02/17 08:28:54;;;;;;;35.67;17.80;;;;;;;6.53;49.66;94844.31;5102945;28;20264;-80
2023/02/17 08:31:31;;;;;;;39.58;16.38;;;;;;;6.64;49.28;94847.81;5102843;28;20024;-85
2023/02/17 08:33:59;;;;;;;48.67;18.30;;;;;;;6.80;49.00;94849.41;5103054;28;20016;-87
2023/02/17 08:36:24;;;;;;;43.25;17.45;;;;;;;6.94;48.26;94854.16;5102724;28;20303;-86
2023/02/17 08:38:51;;;;;;;41.15;16.27;;;;;;;7.02;48.97;94849.13;5102806;28;20094;-84
2023/02/17 08:41:28;;;;;;;46.88;17.33;;;;;;;7.13;48.65;94849.91;5101842;28;20027;-87
2023/02/17 08:43:54;;;;;;;44.95;19.25;;;;;;;7.25;48.51;94839.03;5102780;28;20444;-83
2023/02/17 08:46:21;;;;;;;59.17;19.08;;;;;;;7.34;47.63;94844.59;5100732;28;20050;-83
2023/02/17 08:48:47;;;;;;;61.45;19.63;;;;;;;7.52;47.07;94843.22;5100832;28;20314;-83
2023/02/17 08:51:14;;;;;;;66.45;24.25;;;;;;;7.68;47.55;94849.28;5100865;28;20027;-74
2023/02/17 08:53:40;;;;;;;56.03;19.80;;;;;;;7.81;47.06;94844.19;5100634;28;20072;-74
2023/02/17 08:56:06;;;;;;;48.28;20.77;;;;;;;7.92;47.03;94844.16;5100657;28;20252;-74
2023/02/17 08:58:32;;;;;;;54.10;18.98;;;;;;;8.06;45.82;94844.34;5100469;28;20314;-74
2023/02/17 09:00:57;;;;;;;48.30;20.20;;;;;;;8.20;45.74;94854.13;5103417;28;20031;-74
2023/02/17 09:03:23;;;;;;;44.22;18.42;;;;;;;8.41;45.21;94840.78;5106237;28;20094;-73
2023/02/17 09:05:48;;;;;;;50.05;19.77;;;;;;;8.55;44.96;94840.97;5105977;28;20328;-73
2023/02/17 09:08:14;;;;;;;52.20;18.77;;;;;;;8.70;44.00;94848.81;5106140;28;20087;-73
2023/02/17 09:10:39;;;;;;;49.30;18.35;;;;;;;8.81;43.44;94833.56;5105938;28;20043;-73
2023/02/17 09:13:05;;;;;;;44.80;18.20;;;;;;;8.99;42.89;94843.53;5106020;28;20205;-72
2023/02/17 09:15:30;;;;;;;17.80;7.65;;;;;;;9.22;36.29;94831.38;5105625;28;20055;-72
2023/02/17 09:17:56;;;;;;;32.80;8.30;;;;;;;9.58;36.07;94841.66;5105818;28;20027;-72
2023/02/17 09:20:21;;;;;;;10.18;5.13;;;;;;;9.89;32.60;94840.53;5106252;28;20039;-73
2023/02/17 09:22:46;;;;;;;9.73;4.13;;;;;;;10.08;32.10;94835.28;5106136;28;20031;-73
2023/02/17 09:25:12;;;;;;;11.65;5.00;;;;;;;10.28;31.76;94829.69;5105903;28;20027;-73
2023/02/17 09:27:37;;;;;;;9.93;3.75;;;;;;;10.39;30.41;94833.81;5105670;28;20054;-74
2023/02/17 09:30:03;;;;;;;9.18;4.53;;;;;;;10.57;30.39;94832.22;5105768;28;20020;-75
2023/02/17 09:32:28;;;;;;;8.10;3.97;;;;;;;10.61;30.09;94835.91;5105721;28;20024;-77
2023/02/17 09:34:54;;;;;;;9.57;4.30;;;;;;;10.76;29.61;94832.19;5105802;28;20023;-77
2023/02/17 09:37:20;;;;;;;7.50;4.00;;;;;;;10.76;30.10;94834.88;5105804;28;20032;-77
2023/02/17 09:39:46;;;;;;;8.65;3.95;;;;;;;10.80;28.91;94833.22;5105516;28;20085;-77
2023/02/17 09:42:19;;;;;;;8.23;4.35;;;;;;;10.85;29.29;94837.69;5104516;28;20331;-77
2023/02/17 09:44:47;;;;;;;;;;;;;;;10.91;28.96;94827.72;5105969;28;20039;-77
2023/02/17 09:47:20;;;;;;;10.10;3.75;;;;;;;10.98;29.54;94823.59;5105465;28;19918;-77
2023/02/17 09:50:08;;;;;;;12.30;3.83;;;;;;;11.10;28.62;94830.38;5105570;28;20211;-77
2023/02/17 09:52:51;;;;;;;7.35;3.47;;;;;;;11.09;28.48;94818.88;5105254;28;20036;-77
2023/02/17 09:55:23;;;;;;;9.15;3.72;;;;;;;11.17;29.15;94815.56;5105251;28;20028;-77
2023/02/17 09:57:55;;;;;;;7.00;3.80;;;;;;;11.30;28.68;94823.91;5105618;28;20234;-77
2023/02/17 10:00:26;;;;;;;7.93;3.45;;;;;;;11.47;28.14;94815.31;5105250;28;20091;-77
2023/02/17 10:03:09;;;;;;;7.30;3.80;;;;;;;11.57;27.77;94815.91;5105287;28;20020;-77
2023/02/17 10:05:40;;;;;;;10.25;3.60;;;;;;;11.70;27.46;94817.00;5105094;28;20054;-77
2023/02/17 10:08:11;;;;;;;10.45;3.58;;;;;;;11.78;28.47;94813.66;5105033;28;20020;-76
2023/02/17 10:11:00;;;;;;;12.43;4.13;;;;;;;11.88;27.45;94817.22;5105061;28;20020;-77
2023/02/17 10:13:29;;;;;;;11.25;3.92;;;;;;;11.88;26.71;94817.22;5104143;28;20020;-78
2023/02/17 10:16:01;;;;;;;12.20;2.92;;;;;;;11.75;25.77;94818.81;5103819;28;20034;-77
2023/02/17 10:18:50;;;;;;;10.13;3.20;;;;;;;11.64;26.88;94800.31;5104780;28;20214;-78
2023/02/17 10:21:20;;;;;;;16.80;3.65;;;;;;;11.58;27.42;94803.34;5097371;28;20023;-79
2023/02/17 10:23:46;;;;;;;7.03;2.88;;;;;;;11.54;27.05;94802.34;5103819;28;20024;-78
2023/02/17 10:26:21;;;;;;;11.63;3.30;;;;;;;11.64;26.17;94802.16;5104611;28;20020;-75
2023/02/17 10:29:05;;;;;;;9.68;2.58;;;;;;;11.63;26.11;94793.38;5104881;28;20058;-76
2023/02/17 10:31:43;;;;;;;6.88;2.67;;;;;;;11.59;25.98;94784.38;5104728;28;20076;-76
2023/02/17 10:34:11;;;;;;;7.88;3.67;;;;;;;11.57;26.74;94788.44;5104580;28;20050;-77
2023/02/17 10:36:59;;;;;;;8.65;3.28;;;;;;;11.54;27.33;94786.34;5104452;28;20238;-76
2023/02/17 10:39:48;;;;;;;9.02;3.30;;;;;;;11.59;26.77;94779.03;5104596;28;20027;-76
2023/02/17 10:42:32;;;;;;;9.30;3.00;;;;;;;11.62;27.17;94777.63;5104447;28;20023;-77
2023/02/17 10:45:04;;;;;;;12.70;4.22;;;;;;;11.71;27.25;94785.78;5104525;28;20039;-77
2023/02/17 10:47:30;;;;;;;7.43;3.38;;;;;;;11.67;27.13;94764.22;5104112;28;20078;-76
2023/02/17 10:50:00;;;;;;;7.65;3.25;;;;;;;11.61;27.33;94776.06;5104298;28;20024;-75
2023/02/17 10:52:37;;;;;;;8.45;3.65;;;;;;;11.73;27.92;94770.25;5104077;28;20085;-76
2023/02/17 10:55:16;;;;;;;10.43;3.65;;;;;;;11.76;27.79;94762.41;5104280;28;20024;-75
2023/02/17 10:57:43;;;;;;;11.20;3.70;;;;;;;11.83;27.46;94768.16;5104150;28;20024;-75
2023/02/17 11:00:15;;;;;;;10.75;3.17;;;;;;;11.80;27.21;94774.06;5103808;28;20279;-75
2023/02/17 11:02:44;;;;;;;8.77;3.10;;;;;;;11.82;27.95;94752.41;5103992;28;20058;-74
2023/02/17 11:05:26;;;;;;;9.93;4.10;;;;;;;11.96;28.29;94765.78;5102620;28;20208;-75
2023/02/17 11:08:18;;;;;;;14.23;4.87;;;;;;;12.08;27.70;94766.06;5103796;28;20028;-75
2023/02/17 11:10:43;;;;;;;8.38;4.50;;;;;;;12.18;27.86;94759.72;5103879;28;20207;-75
2023/02/17 11:13:33;;;;;;;14.60;4.20;;;;;;;12.35;27.79;94759.06;5103795;28;20043;-77
2023/02/17 11:15:59;;;;;;;11.23;3.58;;;;;;;12.37;27.01;94751.53;5103896;28;20024;-76
2023/02/17 11:18:30;;;;;;;9.10;4.07;;;;;;;12.35;27.01;94767.88;5102722;28;20057;-76
2023/02/17 11:21:01;;;;;;;9.63;4.03;;;;;;;12.33;27.56;94758.59;5103340;28;20024;-76
2023/02/17 11:23:27;;;;;;;11.47;4.23;;;;;;;12.36;27.12;94763.34;5102888;28;20018;-76
2023/02/17 11:25:59;;;;;;;13.55;4.43;;;;;;;12.38;27.70;94743.22;5103340;28;20012;-76
2023/02/17 11:28:25;;;;;;;;;;;;;;;12.45;27.54;94750.81;5103982;28;20024;-76
2023/02/17 11:30:57;;;;;;;7.22;3.30;;;;;;;12.43;26.78;94755.69;5103548;28;19908;-76
2023/02/17 11:33:42;;;;;;;;;;;;;;;12.28;27.33;94748.03;5104003;28;20019;-76
2023/02/17 11:36:28;;;;;;;10.63;3.70;;;;;;;12.27;27.40;94749.09;5102875;28;19943;-76
2023/02/17 11:38:54;;;;;;;9.43;4.25;;;;;;;12.27;27.53;94747.22;5103538;28;20020;-76